HTDA

Julius Nyerere International Airport

Dar es Salaam, Tanzania
HTDA 172300Z 1800/1906 06005KT 9999 BKN013 FEW014CB TEMPO 1800/1806 RA BECMG 1808/1811 02015KT BECMG 1812/1815 NSW
Issued Valid From Valid To
Dec-17 @ 23:00 UTC
(24 hours ago)
Dec-18 @ 00:00 UTC
(23 hours ago)
Dec-19 @ 06:00 UTC
(in 7 hours)
Expired Click to View Dec-18 @ 00:00 to Dec-18 @ 08:00
HTDA 172300Z 1800/1906 06005KT 9999 BKN013 FEW014CB
Wind Visibility Clouds
60° at 5 knots 10,000+ meters
  • Broken at 1,300' AGL
  • Few at 1,400' AGL
Expired Click to View Dec-18 @ 00:00 to Dec-18 @ 06:00
TEMPO 1800/1806 RA
Conditions
  • Rain
Expired Click to View Dec-18 @ 08:00 to Dec-18 @ 12:00
BECMG 1808/1811 02015KT
Wind Visibility Clouds
20° at 15 knots 10,000+ meters
  • Broken at 1,300' AGL
  • Few at 1,400' AGL
Becoming Dec-18 @ 12:00 to Dec-19 @ 06:00
BECMG 1812/1815 NSW
Wind Visibility Clouds Conditions
20° at 15 knots 10,000+ meters
  • Broken at 1,300' AGL
  • Few at 1,400' AGL
HTDA 172300Z 1800/1906 06005KT 9999 BKN013 FEW014CB TEMPO 1800/1806 RA BECMG 1808/1811 02015KT BECMG 1812/1815 NSW
Issued Dec-17 @ 23:00 UTC
(24 hours ago)
Valid From Dec-18 @ 00:00 UTC
(23 hours ago)
Valid To Dec-19 @ 06:00 UTC
(in 7 hours)
Dec-18 @ 00:00 - Dec-18 @ 08:00
Wind Visibility
60° at 5 knots 10,000+ meters
Clouds
  • Broken at 1,300' AGL
  • Few at 1,400' AGL
Dec-18 @ 00:00 - Dec-18 @ 06:00
Conditions
  • Rain
Dec-18 @ 08:00 - Dec-18 @ 12:00
Wind Visibility
20° at 15 knots 10,000+ meters
Clouds
  • Broken at 1,300' AGL
  • Few at 1,400' AGL
Becoming Dec-18 @ 12:00 - Dec-19 @ 06:00
Wind Visibility
20° at 15 knots 10,000+ meters
Clouds
  • Broken at 1,300' AGL
  • Few at 1,400' AGL
Conditions